sensor_id;sensor_type;location;lat;lon;timestamp;P1;durP1;ratioP1;P2;durP2;ratioP2
56285;SDS011;42191;47.562;9.686;2023-05-01T00:01:08;36.30;;;34.00;;
56285;SDS011;42191;47.562;9.686;2023-05-01T00:03:34;36.03;;;33.80;;
56285;SDS011;42191;47.562;9.686;2023-05-01T00:06:01;36.25;;;34.03;;
56285;SDS011;42191;47.562;9.686;2023-05-01T00:08:29;35.30;;;33.10;;
56285;SDS011;42191;47.562;9.686;2023-05-01T00:10:56;35.65;;;33.35;;
56285;SDS011;42191;47.562;9.686;2023-05-01T00:13:26;36.13;;;33.92;;
56285;SDS011;42191;47.562;9.686;2023-05-01T00:15:52;36.22;;;34.00;;
56285;SDS011;42191;47.562;9.686;2023-05-01T00:18:19;37.47;;;35.08;;
56285;SDS011;42191;47.562;9.686;2023-05-01T00:20:46;35.33;;;33.13;;
56285;SDS011;42191;47.562;9.686;2023-05-01T00:23:12;36.78;;;34.38;;
56285;SDS011;42191;47.562;9.686;2023-05-01T00:25:38;36.28;;;33.97;;
56285;SDS011;42191;47.562;9.686;2023-05-01T00:28:04;36.40;;;33.90;;
56285;SDS011;42191;47.562;9.686;2023-05-01T00:30:31;38.55;;;36.05;;
56285;SDS011;42191;47.562;9.686;2023-05-01T00:32:58;35.13;;;32.92;;
56285;SDS011;42191;47.562;9.686;2023-05-01T00:35:25;36.70;;;34.30;;
56285;SDS011;42191;47.562;9.686;2023-05-01T00:37:52;37.58;;;35.17;;
56285;SDS011;42191;47.562;9.686;2023-05-01T00:40:18;37.03;;;34.72;;
56285;SDS011;42191;47.562;9.686;2023-05-01T00:42:44;35.78;;;33.28;;
56285;SDS011;42191;47.562;9.686;2023-05-01T00:45:10;37.42;;;35.03;;
56285;SDS011;42191;47.562;9.686;2023-05-01T00:47:37;37.38;;;34.88;;
56285;SDS011;42191;47.562;9.686;2023-05-01T00:50:03;38.15;;;35.75;;
56285;SDS011;42191;47.562;9.686;2023-05-01T00:52:30;36.63;;;34.33;;
56285;SDS011;42191;47.562;9.686;2023-05-01T00:54:56;38.05;;;35.53;;
56285;SDS011;42191;47.562;9.686;2023-05-01T00:57:23;37.13;;;34.63;;
56285;SDS011;42191;47.562;9.686;2023-05-01T00:59:49;36.85;;;34.47;;
56285;SDS011;42191;47.562;9.686;2023-05-01T01:02:16;36.75;;;34.40;;
56285;SDS011;42191;47.562;9.686;2023-05-01T01:04:43;37.17;;;34.85;;
56285;SDS011;42191;47.562;9.686;2023-05-01T01:07:22;35.72;;;33.42;;
56285;SDS011;42191;47.562;9.686;2023-05-01T01:15:39;36.05;;;33.75;;
56285;SDS011;42191;47.562;9.686;2023-05-01T01:18:30;37.75;;;35.17;;
56285;SDS011;42191;47.562;9.686;2023-05-01T01:21:11;35.92;;;33.67;;
56285;SDS011;42191;47.562;9.686;2023-05-01T01:24:07;33.70;;;31.60;;
56285;SDS011;42191;47.562;9.686;2023-05-01T01:29:39;35.95;;;33.65;;
56285;SDS011;42191;47.562;9.686;2023-05-01T01:35:03;36.00;;;33.70;;
56285;SDS011;42191;47.562;9.686;2023-05-01T01:37:47;37.95;;;35.45;;
56285;SDS011;42191;47.562;9.686;2023-05-01T01:40:24;37.35;;;35.00;;
56285;SDS011;42191;47.562;9.686;2023-05-01T01:42:58;37.10;;;34.80;;
56285;SDS011;42191;47.562;9.686;2023-05-01T01:45:38;38.38;;;35.55;;
56285;SDS011;42191;47.562;9.686;2023-05-01T01:48:09;38.03;;;35.60;;
56285;SDS011;42191;47.562;9.686;2023-05-01T01:50:41;37.53;;;35.03;;
56285;SDS011;42191;47.562;9.686;2023-05-01T01:53:10;37.28;;;34.97;;
56285;SDS011;42191;47.562;9.686;2023-05-01T01:55:39;36.28;;;34.00;;
56285;SDS011;42191;47.562;9.686;2023-05-01T01:58:09;36.38;;;33.83;;
56285;SDS011;42191;47.562;9.686;2023-05-01T02:00:38;38.22;;;35.83;;
56285;SDS011;42191;47.562;9.686;2023-05-01T02:03:06;37.50;;;35.03;;
56285;SDS011;42191;47.562;9.686;2023-05-01T02:05:34;36.97;;;34.55;;
56285;SDS011;42191;47.562;9.686;2023-05-01T02:08:03;36.58;;;34.17;;
56285;SDS011;42191;47.562;9.686;2023-05-01T02:10:30;35.45;;;33.25;;
56285;SDS011;42191;47.562;9.686;2023-05-01T02:12:58;35.75;;;33.45;;
56285;SDS011;42191;47.562;9.686;2023-05-01T02:15:25;38.03;;;35.63;;
56285;SDS011;42191;47.562;9.686;2023-05-01T02:17:52;37.75;;;35.35;;
56285;SDS011;42191;47.562;9.686;2023-05-01T02:20:19;37.50;;;35.00;;
56285;SDS011;42191;47.562;9.686;2023-05-01T02:22:46;37.10;;;34.70;;
56285;SDS011;42191;47.562;9.686;2023-05-01T02:25:14;37.60;;;35.20;;
56285;SDS011;42191;47.562;9.686;2023-05-01T02:30:24;38.53;;;35.95;;
56285;SDS011;42191;47.562;9.686;2023-05-01T02:32:50;37.47;;;35.00;;
56285;SDS011;42191;47.562;9.686;2023-05-01T02:35:17;38.42;;;35.95;;
56285;SDS011;42191;47.562;9.686;2023-05-01T02:37:43;36.65;;;34.35;;
56285;SDS011;42191;47.562;9.686;2023-05-01T02:40:13;37.08;;;34.65;;
56285;SDS011;42191;47.562;9.686;2023-05-01T02:42:40;36.72;;;34.42;;
56285;SDS011;42191;47.562;9.686;2023-05-01T02:45:09;39.15;;;36.65;;
56285;SDS011;42191;47.562;9.686;2023-05-01T02:47:43;38.67;;;36.22;;
56285;SDS011;42191;47.562;9.686;2023-05-01T02:50:14;38.13;;;35.53;;
56285;SDS011;42191;47.562;9.686;2023-05-01T02:52:41;37.92;;;35.53;;
56285;SDS011;42191;47.562;9.686;2023-05-01T02:55:08;35.78;;;33.45;;
56285;SDS011;42191;47.562;9.686;2023-05-01T02:57:34;38.25;;;35.85;;
56285;SDS011;42191;47.562;9.686;2023-05-01T03:00:00;38.25;;;35.78;;
56285;SDS011;42191;47.562;9.686;2023-05-01T03:02:27;37.80;;;35.33;;
56285;SDS011;42191;47.562;9.686;2023-05-01T03:04:53;39.63;;;37.13;;
56285;SDS011;42191;47.562;9.686;2023-05-01T03:07:19;38.75;;;36.25;;
56285;SDS011;42191;47.562;9.686;2023-05-01T03:09:45;35.35;;;33.05;;
56285;SDS011;42191;47.562;9.686;2023-05-01T03:12:11;38.15;;;35.58;;
56285;SDS011;42191;47.562;9.686;2023-05-01T03:14:37;38.65;;;36.15;;
56285;SDS011;42191;47.562;9.686;2023-05-01T03:17:04;39.83;;;37.15;;
56285;SDS011;42191;47.562;9.686;2023-05-01T03:19:30;37.10;;;34.75;;
56285;SDS011;42191;47.562;9.686;2023-05-01T03:21:56;38.10;;;35.67;;
56285;SDS011;42191;47.562;9.686;2023-05-01T03:24:23;37.78;;;35.33;;
56285;SDS011;42191;47.562;9.686;2023-05-01T03:26:49;38.60;;;36.10;;
56285;SDS011;42191;47.562;9.686;2023-05-01T03:29:15;39.10;;;36.60;;
56285;SDS011;42191;47.562;9.686;2023-05-01T03:31:41;38.92;;;36.42;;
56285;SDS011;42191;47.562;9.686;2023-05-01T03:34:07;38.83;;;36.30;;
56285;SDS011;42191;47.562;9.686;2023-05-01T03:36:33;39.05;;;36.55;;
56285;SDS011;42191;47.562;9.686;2023-05-01T03:39:00;37.35;;;34.95;;
56285;SDS011;42191;47.562;9.686;2023-05-01T03:41:26;37.58;;;35.17;;
56285;SDS011;42191;47.562;9.686;2023-05-01T03:43:52;37.17;;;34.88;;
56285;SDS011;42191;47.562;9.686;2023-05-01T03:46:18;37.72;;;35.33;;
56285;SDS011;42191;47.562;9.686;2023-05-01T03:48:44;36.97;;;34.58;;
56285;SDS011;42191;47.562;9.686;2023-05-01T03:51:10;40.15;;;37.55;;
56285;SDS011;42191;47.562;9.686;2023-05-01T03:53:36;37.92;;;35.53;;
56285;SDS011;42191;47.562;9.686;2023-05-01T03:56:03;38.00;;;35.50;;
56285;SDS011;42191;47.562;9.686;2023-05-01T03:58:29;38.15;;;35.70;;
56285;SDS011;42191;47.562;9.686;2023-05-01T04:00:56;37.83;;;35.40;;
56285;SDS011;42191;47.562;9.686;2023-05-01T04:03:24;37.17;;;34.88;;
56285;SDS011;42191;47.562;9.686;2023-05-01T04:05:50;39.85;;;37.35;;
56285;SDS011;42191;47.562;9.686;2023-05-01T04:08:17;37.17;;;34.78;;
56285;SDS011;42191;47.562;9.686;2023-05-01T04:10:43;40.00;;;37.40;;
56285;SDS011;42191;47.562;9.686;2023-05-01T04:13:09;39.63;;;36.92;;
56285;SDS011;42191;47.562;9.686;2023-05-01T04:15:36;39.65;;;37.10;;
56285;SDS011;42191;47.562;9.686;2023-05-01T04:18:03;40.42;;;37.80;;
56285;SDS011;42191;47.562;9.686;2023-05-01T04:20:29;40.50;;;37.80;;
56285;SDS011;42191;47.562;9.686;2023-05-01T04:22:55;38.78;;;36.17;;
56285;SDS011;42191;47.562;9.686;2023-05-01T04:25:21;39.22;;;36.53;;
56285;SDS011;42191;47.562;9.686;2023-05-01T04:27:47;38.85;;;36.25;;
56285;SDS011;42191;47.562;9.686;2023-05-01T04:30:13;37.63;;;35.20;;
56285;SDS011;42191;47.562;9.686;2023-05-01T04:32:40;37.53;;;35.05;;
56285;SDS011;42191;47.562;9.686;2023-05-01T04:35:06;38.08;;;35.58;;
56285;SDS011;42191;47.562;9.686;2023-05-01T04:37:33;39.85;;;37.22;;
56285;SDS011;42191;47.562;9.686;2023-05-01T04:39:59;38.15;;;35.67;;
56285;SDS011;42191;47.562;9.686;2023-05-01T04:42:29;38.75;;;36.15;;
56285;SDS011;42191;47.562;9.686;2023-05-01T04:44:56;40.08;;;37.50;;
56285;SDS011;42191;47.562;9.686;2023-05-01T04:47:25;42.05;;;39.25;;
56285;SDS011;42191;47.562;9.686;2023-05-01T04:49:52;40.42;;;37.75;;
56285;SDS011;42191;47.562;9.686;2023-05-01T04:52:18;40.83;;;38.13;;
56285;SDS011;42191;47.562;9.686;2023-05-01T04:54:44;39.67;;;37.03;;
56285;SDS011;42191;47.562;9.686;2023-05-01T04:57:10;39.70;;;37.13;;
56285;SDS011;42191;47.562;9.686;2023-05-01T04:59:37;40.10;;;37.45;;
56285;SDS011;42191;47.562;9.686;2023-05-01T05:02:03;39.00;;;36.40;;
56285;SDS011;42191;47.562;9.686;2023-05-01T05:04:29;37.88;;;35.47;;
56285;SDS011;42191;47.562;9.686;2023-05-01T05:06:55;38.50;;;35.95;;
56285;SDS011;42191;47.562;9.686;2023-05-01T05:09:21;39.97;;;37.38;;
56285;SDS011;42191;47.562;9.686;2023-05-01T05:11:47;40.30;;;37.65;;
56285;SDS011;42191;47.562;9.686;2023-05-01T05:14:14;38.88;;;36.38;;
56285;SDS011;42191;47.562;9.686;2023-05-01T05:16:40;38.90;;;36.40;;
56285;SDS011;42191;47.562;9.686;2023-05-01T05:19:06;39.45;;;36.85;;
56285;SDS011;42191;47.562;9.686;2023-05-01T05:21:32;39.33;;;36.83;;
56285;SDS011;42191;47.562;9.686;2023-05-01T05:23:58;40.22;;;37.53;;
56285;SDS011;42191;47.562;9.686;2023-05-01T05:26:25;39.78;;;37.17;;
56285;SDS011;42191;47.562;9.686;2023-05-01T05:28:51;38.92;;;36.42;;
56285;SDS011;42191;47.562;9.686;2023-05-01T05:31:17;38.47;;;35.95;;
56285;SDS011;42191;47.562;9.686;2023-05-01T05:33:44;39.10;;;36.60;;
56285;SDS011;42191;47.562;9.686;2023-05-01T05:36:10;39.65;;;37.05;;
56285;SDS011;42191;47.562;9.686;2023-05-01T05:38:36;37.08;;;34.70;;
56285;SDS011;42191;47.562;9.686;2023-05-01T05:41:02;40.47;;;37.67;;
56285;SDS011;42191;47.562;9.686;2023-05-01T05:43:28;40.30;;;37.67;;
56285;SDS011;42191;47.562;9.686;2023-05-01T05:45:58;38.13;;;35.55;;
56285;SDS011;42191;47.562;9.686;2023-05-01T05:48:24;39.38;;;36.78;;
56285;SDS011;42191;47.562;9.686;2023-05-01T05:50:51;37.13;;;34.67;;
56285;SDS011;42191;47.562;9.686;2023-05-01T05:53:18;40.20;;;37.60;;
56285;SDS011;42191;47.562;9.686;2023-05-01T05:55:47;39.67;;;37.10;;
56285;SDS011;42191;47.562;9.686;2023-05-01T05:58:14;38.65;;;36.15;;
56285;SDS011;42191;47.562;9.686;2023-05-01T06:00:44;39.28;;;36.58;;
56285;SDS011;42191;47.562;9.686;2023-05-01T06:03:12;37.78;;;35.38;;
56285;SDS011;42191;47.562;9.686;2023-05-01T06:05:38;39.72;;;37.13;;
56285;SDS011;42191;47.562;9.686;2023-05-01T06:08:04;40.47;;;37.88;;
56285;SDS011;42191;47.562;9.686;2023-05-01T06:10:30;39.47;;;36.92;;
56285;SDS011;42191;47.562;9.686;2023-05-01T06:12:56;38.17;;;35.67;;
56285;SDS011;42191;47.562;9.686;2023-05-01T06:15:22;39.25;;;36.75;;
56285;SDS011;42191;47.562;9.686;2023-05-01T06:17:48;39.63;;;36.88;;
56285;SDS011;42191;47.562;9.686;2023-05-01T06:20:15;38.85;;;36.35;;
56285;SDS011;42191;47.562;9.686;2023-05-01T06:22:41;38.15;;;35.65;;
56285;SDS011;42191;47.562;9.686;2023-05-01T06:25:07;40.13;;;37.55;;
56285;SDS011;42191;47.562;9.686;2023-05-01T06:27:34;38.83;;;36.17;;
56285;SDS011;42191;47.562;9.686;2023-05-01T06:30:00;39.47;;;36.92;;
56285;SDS011;42191;47.562;9.686;2023-05-01T06:32:27;38.60;;;36.10;;
56285;SDS011;42191;47.562;9.686;2023-05-01T06:34:53;38.95;;;36.40;;
56285;SDS011;42191;47.562;9.686;2023-05-01T06:37:20;38.20;;;35.65;;
56285;SDS011;42191;47.562;9.686;2023-05-01T06:39:46;38.92;;;36.42;;
56285;SDS011;42191;47.562;9.686;2023-05-01T06:42:12;39.03;;;36.35;;
56285;SDS011;42191;47.562;9.686;2023-05-01T06:44:41;39.22;;;36.63;;
56285;SDS011;42191;47.562;9.686;2023-05-01T06:47:07;40.80;;;38.10;;
56285;SDS011;42191;47.562;9.686;2023-05-01T06:49:33;40.20;;;37.60;;
56285;SDS011;42191;47.562;9.686;2023-05-01T06:52:00;38.60;;;36.03;;
56285;SDS011;42191;47.562;9.686;2023-05-01T06:54:26;39.20;;;36.70;;
56285;SDS011;42191;47.562;9.686;2023-05-01T06:56:52;39.33;;;36.75;;
56285;SDS011;42191;47.562;9.686;2023-05-01T06:59:18;36.80;;;34.40;;
56285;SDS011;42191;47.562;9.686;2023-05-01T07:01:44;38.75;;;36.25;;
56285;SDS011;42191;47.562;9.686;2023-05-01T07:04:10;38.58;;;35.97;;
56285;SDS011;42191;47.562;9.686;2023-05-01T07:06:37;37.78;;;35.28;;
56285;SDS011;42191;47.562;9.686;2023-05-01T07:09:03;40.30;;;37.60;;
56285;SDS011;42191;47.562;9.686;2023-05-01T07:11:30;37.20;;;34.80;;
56285;SDS011;42191;47.562;9.686;2023-05-01T07:13:57;38.15;;;35.65;;
56285;SDS011;42191;47.562;9.686;2023-05-01T07:16:24;39.83;;;37.20;;
56285;SDS011;42191;47.562;9.686;2023-05-01T07:18:51;38.70;;;36.10;;
56285;SDS011;42191;47.562;9.686;2023-05-01T07:21:17;38.20;;;35.70;;
56285;SDS011;42191;47.562;9.686;2023-05-01T07:23:43;37.40;;;34.80;;
56285;SDS011;42191;47.562;9.686;2023-05-01T07:26:10;38.47;;;35.88;;
56285;SDS011;42191;47.562;9.686;2023-05-01T07:28:36;39.22;;;36.63;;
56285;SDS011;42191;47.562;9.686;2023-05-01T07:31:02;36.63;;;34.03;;
56285;SDS011;42191;47.562;9.686;2023-05-01T07:33:28;37.08;;;34.58;;
56285;SDS011;42191;47.562;9.686;2023-05-01T07:35:55;36.90;;;34.50;;
56285;SDS011;42191;47.562;9.686;2023-05-01T07:38:21;39.53;;;37.03;;
56285;SDS011;42191;47.562;9.686;2023-05-01T07:40:48;36.78;;;34.38;;
56285;SDS011;42191;47.562;9.686;2023-05-01T07:43:17;38.38;;;35.78;;
56285;SDS011;42191;47.562;9.686;2023-05-01T07:45:52;38.08;;;35.58;;
56285;SDS011;42191;47.562;9.686;2023-05-01T07:48:23;38.38;;;35.85;;
56285;SDS011;42191;47.562;9.686;2023-05-01T07:50:49;39.08;;;36.45;;
56285;SDS011;42191;47.562;9.686;2023-05-01T07:53:15;39.00;;;36.40;;
56285;SDS011;42191;47.562;9.686;2023-05-01T07:55:42;37.22;;;34.80;;
56285;SDS011;42191;47.562;9.686;2023-05-01T07:58:08;38.15;;;35.65;;
56285;SDS011;42191;47.562;9.686;2023-05-01T08:00:34;37.53;;;35.05;;
56285;SDS011;42191;47.562;9.686;2023-05-01T08:03:00;38.00;;;35.50;;
56285;SDS011;42191;47.562;9.686;2023-05-01T08:05:26;38.45;;;35.97;;
56285;SDS011;42191;47.562;9.686;2023-05-01T08:07:53;39.00;;;36.38;;
56285;SDS011;42191;47.562;9.686;2023-05-01T08:10:19;39.55;;;36.85;;
56285;SDS011;42191;47.562;9.686;2023-05-01T08:12:45;37.38;;;34.88;;
56285;SDS011;42191;47.562;9.686;2023-05-01T08:15:11;38.45;;;35.85;;
56285;SDS011;42191;47.562;9.686;2023-05-01T08:17:37;38.78;;;36.17;;
56285;SDS011;42191;47.562;9.686;2023-05-01T08:20:03;36.95;;;34.58;;
56285;SDS011;42191;47.562;9.686;2023-05-01T08:22:30;38.15;;;35.50;;
56285;SDS011;42191;47.562;9.686;2023-05-01T08:24:56;38.47;;;35.97;;
56285;SDS011;42191;47.562;9.686;2023-05-01T08:27:22;38.63;;;36.08;;
56285;SDS011;42191;47.562;9.686;2023-05-01T08:29:48;37.50;;;35.03;;
56285;SDS011;42191;47.562;9.686;2023-05-01T08:32:14;37.92;;;35.53;;
56285;SDS011;42191;47.562;9.686;2023-05-01T08:34:41;36.53;;;34.13;;
56285;SDS011;42191;47.562;9.686;2023-05-01T08:37:07;38.75;;;36.25;;
56285;SDS011;42191;47.562;9.686;2023-05-01T08:39:33;37.85;;;35.42;;
56285;SDS011;42191;47.562;9.686;2023-05-01T08:41:59;38.03;;;35.53;;
56285;SDS011;42191;47.562;9.686;2023-05-01T08:44:26;37.70;;;35.30;;
56285;SDS011;42191;47.562;9.686;2023-05-01T08:46:58;36.53;;;34.13;;
56285;SDS011;42191;47.562;9.686;2023-05-01T08:49:34;37.00;;;34.50;;
56285;SDS011;42191;47.562;9.686;2023-05-01T08:52:01;36.70;;;34.33;;
56285;SDS011;42191;47.562;9.686;2023-05-01T08:54:30;37.85;;;35.28;;
56285;SDS011;42191;47.562;9.686;2023-05-01T08:57:00;37.50;;;35.10;;
56285;SDS011;42191;47.562;9.686;2023-05-01T09:02:00;36.45;;;34.13;;
56285;SDS011;42191;47.562;9.686;2023-05-01T09:04:31;37.60;;;35.20;;
56285;SDS011;42191;47.562;9.686;2023-05-01T09:07:02;38.75;;;36.25;;
56285;SDS011;42191;47.562;9.686;2023-05-01T09:09:29;37.05;;;34.58;;
56285;SDS011;42191;47.562;9.686;2023-05-01T09:11:58;36.90;;;34.50;;
56285;SDS011;42191;47.562;9.686;2023-05-01T09:14:25;36.75;;;34.25;;
56285;SDS011;42191;47.562;9.686;2023-05-01T09:16:52;37.17;;;34.78;;
56285;SDS011;42191;47.562;9.686;2023-05-01T09:19:19;38.20;;;35.60;;
56285;SDS011;42191;47.562;9.686;2023-05-01T09:21:46;35.58;;;33.28;;
56285;SDS011;42191;47.562;9.686;2023-05-01T09:24:12;35.70;;;33.40;;
56285;SDS011;42191;47.562;9.686;2023-05-01T09:26:39;37.78;;;35.35;;
56285;SDS011;42191;47.562;9.686;2023-05-01T09:29:06;36.78;;;34.40;;
56285;SDS011;42191;47.562;9.686;2023-05-01T09:31:34;36.85;;;34.45;;
56285;SDS011;42191;47.562;9.686;2023-05-01T09:34:01;35.17;;;32.92;;
56285;SDS011;42191;47.562;9.686;2023-05-01T09:36:29;36.28;;;33.97;;
56285;SDS011;42191;47.562;9.686;2023-05-01T09:38:59;35.58;;;33.33;;
56285;SDS011;42191;47.562;9.686;2023-05-01T09:41:26;36.47;;;34.17;;
56285;SDS011;42191;47.562;9.686;2023-05-01T09:43:53;36.38;;;33.97;;
56285;SDS011;42191;47.562;9.686;2023-05-01T09:46:21;37.83;;;35.35;;
56285;SDS011;42191;47.562;9.686;2023-05-01T09:48:55;37.90;;;35.47;;
56285;SDS011;42191;47.562;9.686;2023-05-01T09:51:26;36.53;;;34.20;;
56285;SDS011;42191;47.562;9.686;2023-05-01T09:54:03;36.35;;;34.00;;
56285;SDS011;42191;47.562;9.686;2023-05-01T09:56:31;37.17;;;34.78;;
56285;SDS011;42191;47.562;9.686;2023-05-01T09:59:13;37.88;;;35.33;;
56285;SDS011;42191;47.562;9.686;2023-05-01T10:01:44;37.13;;;34.70;;
56285;SDS011;42191;47.562;9.686;2023-05-01T10:04:12;37.85;;;35.40;;
56285;SDS011;42191;47.562;9.686;2023-05-01T10:06:38;37.40;;;34.85;;
56285;SDS011;42191;47.562;9.686;2023-05-01T10:09:05;38.85;;;36.35;;
56285;SDS011;42191;47.562;9.686;2023-05-01T10:11:47;37.22;;;34.83;;
56285;SDS011;42191;47.562;9.686;2023-05-01T10:14:18;37.05;;;34.70;;
56285;SDS011;42191;47.562;9.686;2023-05-01T10:16:45;37.50;;;35.05;;
56285;SDS011;42191;47.562;9.686;2023-05-01T10:19:11;36.17;;;33.80;;
56285;SDS011;42191;47.562;9.686;2023-05-01T10:21:39;38.67;;;36.13;;
56285;SDS011;42191;47.562;9.686;2023-05-01T10:24:05;34.95;;;32.72;;
56285;SDS011;42191;47.562;9.686;2023-05-01T10:26:33;36.10;;;33.78;;
56285;SDS011;42191;47.562;9.686;2023-05-01T10:29:00;36.83;;;34.42;;
56285;SDS011;42191;47.562;9.686;2023-05-01T10:31:27;35.85;;;33.45;;
56285;SDS011;42191;47.562;9.686;2023-05-01T10:33:56;36.35;;;33.80;;
56285;SDS011;42191;47.562;9.686;2023-05-01T10:36:30;35.92;;;33.53;;
56285;SDS011;42191;47.562;9.686;2023-05-01T10:44:35;36.42;;;34.03;;
56285;SDS011;42191;47.562;9.686;2023-05-01T10:55:37;35.65;;;33.25;;
56285;SDS011;42191;47.562;9.686;2023-05-01T10:58:04;36.92;;;34.53;;
56285;SDS011;42191;47.562;9.686;2023-05-01T11:00:30;35.03;;;32.72;;
56285;SDS011;42191;47.562;9.686;2023-05-01T11:11:43;34.65;;;32.35;;
56285;SDS011;42191;47.562;9.686;2023-05-01T11:13:56;37.25;;;34.85;;
56285;SDS011;42191;47.562;9.686;2023-05-01T11:19:02;36.17;;;33.87;;
56285;SDS011;42191;47.562;9.686;2023-05-01T11:21:28;34.08;;;31.85;;
56285;SDS011;42191;47.562;9.686;2023-05-01T11:23:59;35.33;;;33.03;;
56285;SDS011;42191;47.562;9.686;2023-05-01T11:26:26;35.10;;;32.80;;
56285;SDS011;42191;47.562;9.686;2023-05-01T11:28:53;34.20;;;31.98;;
56285;SDS011;42191;47.562;9.686;2023-05-01T11:31:21;33.40;;;31.20;;
56285;SDS011;42191;47.562;9.686;2023-05-01T11:33:48;35.42;;;33.13;;
56285;SDS011;42191;47.562;9.686;2023-05-01T11:36:14;33.97;;;31.80;;
56285;SDS011;42191;47.562;9.686;2023-05-01T11:38:53;34.90;;;32.65;;
56285;SDS011;42191;47.562;9.686;2023-05-01T11:41:24;34.25;;;32.05;;
56285;SDS011;42191;47.562;9.686;2023-05-01T11:43:56;33.28;;;31.08;;
56285;SDS011;42191;47.562;9.686;2023-05-01T11:46:24;33.83;;;31.63;;
56285;SDS011;42191;47.562;9.686;2023-05-01T11:48:54;33.22;;;31.13;;
56285;SDS011;42191;47.562;9.686;2023-05-01T11:51:21;34.03;;;31.80;;
56285;SDS011;42191;47.562;9.686;2023-05-01T11:54:09;34.03;;;31.77;;
56285;SDS011;42191;47.562;9.686;2023-05-01T11:56:38;33.28;;;31.08;;
56285;SDS011;42191;47.562;9.686;2023-05-01T11:59:13;34.92;;;32.72;;
56285;SDS011;42191;47.562;9.686;2023-05-01T12:01:44;33.10;;;30.95;;
56285;SDS011;42191;47.562;9.686;2023-05-01T12:04:11;34.85;;;32.50;;
56285;SDS011;42191;47.562;9.686;2023-05-01T12:06:46;34.00;;;31.80;;
56285;SDS011;42191;47.562;9.686;2023-05-01T12:09:16;33.92;;;31.73;;
56285;SDS011;42191;47.562;9.686;2023-05-01T12:11:45;33.55;;;31.35;;
56285;SDS011;42191;47.562;9.686;2023-05-01T12:14:13;33.90;;;31.60;;
56285;SDS011;42191;47.562;9.686;2023-05-01T12:16:40;34.28;;;32.08;;
56285;SDS011;42191;47.562;9.686;2023-05-01T12:19:07;34.03;;;31.83;;
56285;SDS011;42191;47.562;9.686;2023-05-01T12:21:33;34.40;;;32.13;;
56285;SDS011;42191;47.562;9.686;2023-05-01T12:24:17;32.50;;;30.40;;
56285;SDS011;42191;47.562;9.686;2023-05-01T12:26:44;33.10;;;31.00;;
56285;SDS011;42191;47.562;9.686;2023-05-01T12:29:10;32.83;;;30.80;;
56285;SDS011;42191;47.562;9.686;2023-05-01T12:31:46;34.38;;;32.08;;
56285;SDS011;42191;47.562;9.686;2023-05-01T12:34:13;34.92;;;32.67;;
56285;SDS011;42191;47.562;9.686;2023-05-01T12:36:40;33.67;;;31.58;;
56285;SDS011;42191;47.562;9.686;2023-05-01T12:39:06;33.55;;;31.42;;
56285;SDS011;42191;47.562;9.686;2023-05-01T12:41:44;33.67;;;31.48;;
56285;SDS011;42191;47.562;9.686;2023-05-01T12:44:24;34.08;;;31.98;;
56285;SDS011;42191;47.562;9.686;2023-05-01T12:46:57;33.80;;;31.65;;
56285;SDS011;42191;47.562;9.686;2023-05-01T12:49:29;33.15;;;31.05;;
56285;SDS011;42191;47.562;9.686;2023-05-01T12:51:57;33.72;;;31.52;;
56285;SDS011;42191;47.562;9.686;2023-05-01T12:54:29;35.03;;;32.83;;
56285;SDS011;42191;47.562;9.686;2023-05-01T12:57:06;32.47;;;30.47;;
56285;SDS011;42191;47.562;9.686;2023-05-01T12:59:35;32.55;;;30.35;;
56285;SDS011;42191;47.562;9.686;2023-05-01T13:02:20;33.58;;;31.48;;
56285;SDS011;42191;47.562;9.686;2023-05-01T13:05:08;33.72;;;31.52;;
56285;SDS011;42191;47.562;9.686;2023-05-01T13:07:36;33.25;;;31.20;;
56285;SDS011;42191;47.562;9.686;2023-05-01T13:10:04;32.80;;;30.70;;
56285;SDS011;42191;47.562;9.686;2023-05-01T13:12:31;32.47;;;30.35;;
56285;SDS011;42191;47.562;9.686;2023-05-01T13:15:07;33.17;;;31.13;;
56285;SDS011;42191;47.562;9.686;2023-05-01T13:17:44;33.35;;;31.17;;
56285;SDS011;42191;47.562;9.686;2023-05-01T13:20:11;32.78;;;30.77;;
56285;SDS011;42191;47.562;9.686;2023-05-01T13:22:37;33.38;;;31.27;;
56285;SDS011;42191;47.562;9.686;2023-05-01T13:25:04;31.02;;;29.13;;
56285;SDS011;42191;47.562;9.686;2023-05-01T13:27:41;31.15;;;29.25;;
56285;SDS011;42191;47.562;9.686;2023-05-01T13:30:14;31.27;;;29.38;;
56285;SDS011;42191;47.562;9.686;2023-05-01T13:32:43;30.30;;;28.42;;
56285;SDS011;42191;47.562;9.686;2023-05-01T13:35:11;29.23;;;27.38;;
56285;SDS011;42191;47.562;9.686;2023-05-01T13:37:45;31.27;;;29.38;;
56285;SDS011;42191;47.562;9.686;2023-05-01T13:40:11;31.38;;;29.48;;
56285;SDS011;42191;47.562;9.686;2023-05-01T13:42:38;32.17;;;30.25;;
56285;SDS011;42191;47.562;9.686;2023-05-01T13:45:06;32.88;;;30.88;;
56285;SDS011;42191;47.562;9.686;2023-05-01T13:47:33;31.33;;;29.42;;
56285;SDS011;42191;47.562;9.686;2023-05-01T13:50:03;31.83;;;29.92;;
56285;SDS011;42191;47.562;9.686;2023-05-01T13:52:32;31.52;;;29.63;;
56285;SDS011;42191;47.562;9.686;2023-05-01T13:55:09;29.95;;;28.15;;
56285;SDS011;42191;47.562;9.686;2023-05-01T13:57:37;32.42;;;30.50;;
56285;SDS011;42191;47.562;9.686;2023-05-01T14:00:07;32.58;;;30.60;;
56285;SDS011;42191;47.562;9.686;2023-05-01T14:02:41;32.97;;;30.98;;
56285;SDS011;42191;47.562;9.686;2023-05-01T14:05:09;34.10;;;32.00;;
56285;SDS011;42191;47.562;9.686;2023-05-01T14:07:39;32.72;;;30.75;;
56285;SDS011;42191;47.562;9.686;2023-05-01T14:10:11;33.95;;;31.88;;
56285;SDS011;42191;47.562;9.686;2023-05-01T14:12:37;31.98;;;30.08;;
56285;SDS011;42191;47.562;9.686;2023-05-01T14:15:06;32.95;;;30.95;;
56285;SDS011;42191;47.562;9.686;2023-05-01T14:17:34;32.83;;;30.67;;
56285;SDS011;42191;47.562;9.686;2023-05-01T14:20:02;34.17;;;32.08;;
56285;SDS011;42191;47.562;9.686;2023-05-01T14:22:34;32.97;;;30.98;;
56285;SDS011;42191;47.562;9.686;2023-05-01T14:25:07;33.42;;;31.42;;
56285;SDS011;42191;47.562;9.686;2023-05-01T14:27:43;32.58;;;30.67;;
56285;SDS011;42191;47.562;9.686;2023-05-01T14:30:12;30.88;;;29.05;;
56285;SDS011;42191;47.562;9.686;2023-05-01T14:32:54;31.35;;;29.48;;
56285;SDS011;42191;47.562;9.686;2023-05-01T14:35:21;33.42;;;31.45;;
56285;SDS011;42191;47.562;9.686;2023-05-01T14:37:48;31.48;;;29.60;;
56285;SDS011;42191;47.562;9.686;2023-05-01T14:40:15;32.95;;;30.95;;
56285;SDS011;42191;47.562;9.686;2023-05-01T14:42:50;33.85;;;31.85;;
56285;SDS011;42191;47.562;9.686;2023-05-01T14:45:17;32.47;;;30.48;;
56285;SDS011;42191;47.562;9.686;2023-05-01T14:47:44;33.97;;;31.88;;
56285;SDS011;42191;47.562;9.686;2023-05-01T14:50:12;32.90;;;30.88;;
56285;SDS011;42191;47.562;9.686;2023-05-01T14:52:44;34.00;;;32.00;;
56285;SDS011;42191;47.562;9.686;2023-05-01T14:55:11;31.70;;;29.77;;
56285;SDS011;42191;47.562;9.686;2023-05-01T14:57:38;32.05;;;30.15;;
56285;SDS011;42191;47.562;9.686;2023-05-01T15:00:04;33.55;;;31.45;;
56285;SDS011;42191;47.562;9.686;2023-05-01T15:02:31;30.83;;;29.02;;
56285;SDS011;42191;47.562;9.686;2023-05-01T15:04:57;33.42;;;31.42;;
56285;SDS011;42191;47.562;9.686;2023-05-01T15:07:24;31.80;;;29.90;;
56285;SDS011;42191;47.562;9.686;2023-05-01T15:09:50;33.75;;;31.75;;